sensor_id;sensor_type;location;lat;lon;timestamp;P1;durP1;ratioP1;P2;durP2;ratioP2
13764;SDS011;6953;48.810;9.204;2022-10-30T00:00:55;0.57;;;0.57;;
13764;SDS011;6953;48.810;9.204;2022-10-30T00:03:20;0.40;;;0.40;;
13764;SDS011;6953;48.810;9.204;2022-10-30T00:05:46;0.50;;;0.50;;
13764;SDS011;6953;48.810;9.204;2022-10-30T00:08:14;0.50;;;0.50;;
13764;SDS011;6953;48.810;9.204;2022-10-30T00:10:41;0.50;;;0.50;;
13764;SDS011;6953;48.810;9.204;2022-10-30T00:13:07;0.50;;;0.50;;
13764;SDS011;6953;48.810;9.204;2022-10-30T00:15:33;0.55;;;0.55;;
13764;SDS011;6953;48.810;9.204;2022-10-30T00:17:59;0.45;;;0.45;;
13764;SDS011;6953;48.810;9.204;2022-10-30T00:20:24;0.60;;;0.60;;
13764;SDS011;6953;48.810;9.204;2022-10-30T00:22:49;0.50;;;0.50;;
13764;SDS011;6953;48.810;9.204;2022-10-30T00:25:15;0.50;;;0.50;;
13764;SDS011;6953;48.810;9.204;2022-10-30T00:27:40;0.50;;;0.50;;
13764;SDS011;6953;48.810;9.204;2022-10-30T00:30:06;0.50;;;0.50;;
13764;SDS011;6953;48.810;9.204;2022-10-30T00:32:32;0.43;;;0.43;;
13764;SDS011;6953;48.810;9.204;2022-10-30T00:34:57;0.40;;;0.40;;
13764;SDS011;6953;48.810;9.204;2022-10-30T00:37:22;0.50;;;0.50;;
13764;SDS011;6953;48.810;9.204;2022-10-30T00:39:48;0.50;;;0.50;;
13764;SDS011;6953;48.810;9.204;2022-10-30T00:42:14;0.50;;;0.50;;
13764;SDS011;6953;48.810;9.204;2022-10-30T00:47:12;0.60;;;0.60;;
13764;SDS011;6953;48.810;9.204;2022-10-30T00:49:56;0.50;;;0.50;;
13764;SDS011;6953;48.810;9.204;2022-10-30T00:53:08;0.50;;;0.50;;
13764;SDS011;6953;48.810;9.204;2022-10-30T00:55:37;0.50;;;0.50;;
13764;SDS011;6953;48.810;9.204;2022-10-30T00:58:07;0.50;;;0.50;;
13764;SDS011;6953;48.810;9.204;2022-10-30T01:00:35;0.60;;;0.60;;
13764;SDS011;6953;48.810;9.204;2022-10-30T01:03:04;0.45;;;0.45;;
13764;SDS011;6953;48.810;9.204;2022-10-30T01:05:30;0.50;;;0.50;;
13764;SDS011;6953;48.810;9.204;2022-10-30T01:07:57;0.55;;;0.55;;
13764;SDS011;6953;48.810;9.204;2022-10-30T01:10:22;0.60;;;0.60;;
13764;SDS011;6953;48.810;9.204;2022-10-30T01:12:48;0.60;;;0.60;;
13764;SDS011;6953;48.810;9.204;2022-10-30T01:15:16;0.50;;;0.50;;
13764;SDS011;6953;48.810;9.204;2022-10-30T01:22:58;0.50;;;0.50;;
13764;SDS011;6953;48.810;9.204;2022-10-30T01:34:20;0.50;;;0.50;;
13764;SDS011;6953;48.810;9.204;2022-10-30T01:37:05;0.60;;;0.60;;
13764;SDS011;6953;48.810;9.204;2022-10-30T01:39:38;0.50;;;0.50;;
13764;SDS011;6953;48.810;9.204;2022-10-30T01:42:09;0.50;;;0.50;;
13764;SDS011;6953;48.810;9.204;2022-10-30T01:44:53;0.60;;;0.60;;
13764;SDS011;6953;48.810;9.204;2022-10-30T01:47:27;0.50;;;0.50;;
13764;SDS011;6953;48.810;9.204;2022-10-30T01:53:02;0.50;;;0.50;;
13764;SDS011;6953;48.810;9.204;2022-10-30T01:58:20;0.50;;;0.50;;
13764;SDS011;6953;48.810;9.204;2022-10-30T02:00:51;0.47;;;0.47;;
13764;SDS011;6953;48.810;9.204;2022-10-30T02:03:20;0.50;;;0.50;;
13764;SDS011;6953;48.810;9.204;2022-10-30T02:05:47;0.50;;;0.50;;
13764;SDS011;6953;48.810;9.204;2022-10-30T02:08:14;0.52;;;0.52;;
13764;SDS011;6953;48.810;9.204;2022-10-30T02:10:40;0.60;;;0.60;;
13764;SDS011;6953;48.810;9.204;2022-10-30T02:13:08;0.40;;;0.40;;
13764;SDS011;6953;48.810;9.204;2022-10-30T02:15:34;0.50;;;0.50;;
13764;SDS011;6953;48.810;9.204;2022-10-30T02:18:00;0.50;;;0.50;;
13764;SDS011;6953;48.810;9.204;2022-10-30T02:20:26;0.50;;;0.50;;
13764;SDS011;6953;48.810;9.204;2022-10-30T02:22:52;0.50;;;0.50;;
13764;SDS011;6953;48.810;9.204;2022-10-30T02:25:17;0.60;;;0.60;;
13764;SDS011;6953;48.810;9.204;2022-10-30T02:27:43;0.50;;;0.50;;
13764;SDS011;6953;48.810;9.204;2022-10-30T02:30:08;0.55;;;0.55;;
13764;SDS011;6953;48.810;9.204;2022-10-30T02:32:34;0.50;;;0.50;;
13764;SDS011;6953;48.810;9.204;2022-10-30T02:34:59;0.60;;;0.60;;
13764;SDS011;6953;48.810;9.204;2022-10-30T02:37:25;0.60;;;0.60;;
13764;SDS011;6953;48.810;9.204;2022-10-30T02:39:51;0.52;;;0.52;;
13764;SDS011;6953;48.810;9.204;2022-10-30T02:42:16;0.50;;;0.50;;
13764;SDS011;6953;48.810;9.204;2022-10-30T02:44:42;0.40;;;0.40;;
13764;SDS011;6953;48.810;9.204;2022-10-30T02:47:07;0.43;;;0.43;;
13764;SDS011;6953;48.810;9.204;2022-10-30T02:49:33;0.50;;;0.50;;
13764;SDS011;6953;48.810;9.204;2022-10-30T02:51:58;0.50;;;0.50;;
13764;SDS011;6953;48.810;9.204;2022-10-30T02:54:23;0.50;;;0.50;;
13764;SDS011;6953;48.810;9.204;2022-10-30T02:56:49;0.50;;;0.50;;
13764;SDS011;6953;48.810;9.204;2022-10-30T02:59:15;0.40;;;0.40;;
13764;SDS011;6953;48.810;9.204;2022-10-30T03:01:40;0.45;;;0.45;;
13764;SDS011;6953;48.810;9.204;2022-10-30T03:04:06;0.57;;;0.57;;
13764;SDS011;6953;48.810;9.204;2022-10-30T03:06:31;0.50;;;0.50;;
13764;SDS011;6953;48.810;9.204;2022-10-30T03:08:56;0.40;;;0.40;;
13764;SDS011;6953;48.810;9.204;2022-10-30T03:11:22;0.50;;;0.50;;
13764;SDS011;6953;48.810;9.204;2022-10-30T03:13:47;0.40;;;0.40;;
13764;SDS011;6953;48.810;9.204;2022-10-30T03:16:14;0.57;;;0.57;;
13764;SDS011;6953;48.810;9.204;2022-10-30T03:18:42;0.50;;;0.50;;
13764;SDS011;6953;48.810;9.204;2022-10-30T03:21:08;0.50;;;0.50;;
13764;SDS011;6953;48.810;9.204;2022-10-30T03:23:36;0.60;;;0.60;;
13764;SDS011;6953;48.810;9.204;2022-10-30T03:26:02;0.50;;;0.50;;
13764;SDS011;6953;48.810;9.204;2022-10-30T03:28:29;0.60;;;0.60;;
13764;SDS011;6953;48.810;9.204;2022-10-30T03:31:02;0.60;;;0.60;;
13764;SDS011;6953;48.810;9.204;2022-10-30T03:33:30;0.57;;;0.57;;
13764;SDS011;6953;48.810;9.204;2022-10-30T03:35:57;0.50;;;0.50;;
13764;SDS011;6953;48.810;9.204;2022-10-30T03:38:23;0.57;;;0.57;;
13764;SDS011;6953;48.810;9.204;2022-10-30T03:40:48;0.57;;;0.57;;
13764;SDS011;6953;48.810;9.204;2022-10-30T03:43:14;0.50;;;0.50;;
13764;SDS011;6953;48.810;9.204;2022-10-30T03:45:39;0.50;;;0.50;;
13764;SDS011;6953;48.810;9.204;2022-10-30T03:48:11;0.60;;;0.60;;
13764;SDS011;6953;48.810;9.204;2022-10-30T03:50:36;0.60;;;0.60;;
13764;SDS011;6953;48.810;9.204;2022-10-30T03:53:01;0.60;;;0.60;;
13764;SDS011;6953;48.810;9.204;2022-10-30T03:55:27;0.60;;;0.60;;
13764;SDS011;6953;48.810;9.204;2022-10-30T03:57:52;0.50;;;0.50;;
13764;SDS011;6953;48.810;9.204;2022-10-30T04:00:18;0.60;;;0.60;;
13764;SDS011;6953;48.810;9.204;2022-10-30T04:02:47;0.55;;;0.55;;
13764;SDS011;6953;48.810;9.204;2022-10-30T04:05:15;0.50;;;0.50;;
13764;SDS011;6953;48.810;9.204;2022-10-30T04:07:42;0.60;;;0.60;;
13764;SDS011;6953;48.810;9.204;2022-10-30T04:10:08;0.50;;;0.50;;
13764;SDS011;6953;48.810;9.204;2022-10-30T04:12:33;0.60;;;0.60;;
13764;SDS011;6953;48.810;9.204;2022-10-30T04:14:59;0.50;;;0.50;;
13764;SDS011;6953;48.810;9.204;2022-10-30T04:17:24;0.60;;;0.60;;
13764;SDS011;6953;48.810;9.204;2022-10-30T04:19:49;0.60;;;0.60;;
13764;SDS011;6953;48.810;9.204;2022-10-30T04:22:15;0.45;;;0.45;;
13764;SDS011;6953;48.810;9.204;2022-10-30T04:24:40;0.50;;;0.50;;
13764;SDS011;6953;48.810;9.204;2022-10-30T04:27:05;0.60;;;0.60;;
13764;SDS011;6953;48.810;9.204;2022-10-30T04:29:31;0.50;;;0.50;;
13764;SDS011;6953;48.810;9.204;2022-10-30T04:31:56;0.50;;;0.50;;
13764;SDS011;6953;48.810;9.204;2022-10-30T04:34:22;0.50;;;0.50;;
13764;SDS011;6953;48.810;9.204;2022-10-30T04:36:47;0.50;;;0.50;;
13764;SDS011;6953;48.810;9.204;2022-10-30T04:39:12;0.60;;;0.60;;
13764;SDS011;6953;48.810;9.204;2022-10-30T04:41:38;0.60;;;0.60;;
13764;SDS011;6953;48.810;9.204;2022-10-30T04:44:03;0.60;;;0.60;;
13764;SDS011;6953;48.810;9.204;2022-10-30T04:46:30;0.60;;;0.60;;
13764;SDS011;6953;48.810;9.204;2022-10-30T04:48:55;0.60;;;0.60;;
13764;SDS011;6953;48.810;9.204;2022-10-30T04:51:21;0.50;;;0.50;;
13764;SDS011;6953;48.810;9.204;2022-10-30T04:53:47;0.57;;;0.57;;
13764;SDS011;6953;48.810;9.204;2022-10-30T04:56:13;0.60;;;0.60;;
13764;SDS011;6953;48.810;9.204;2022-10-30T04:58:38;0.50;;;0.50;;
13764;SDS011;6953;48.810;9.204;2022-10-30T05:01:05;0.70;;;0.70;;
13764;SDS011;6953;48.810;9.204;2022-10-30T05:03:31;0.50;;;0.50;;
13764;SDS011;6953;48.810;9.204;2022-10-30T05:05:58;0.50;;;0.50;;
13764;SDS011;6953;48.810;9.204;2022-10-30T05:08:26;0.60;;;0.60;;
13764;SDS011;6953;48.810;9.204;2022-10-30T05:10:52;0.60;;;0.60;;
13764;SDS011;6953;48.810;9.204;2022-10-30T05:13:18;0.60;;;0.60;;
13764;SDS011;6953;48.810;9.204;2022-10-30T05:15:43;0.60;;;0.60;;
13764;SDS011;6953;48.810;9.204;2022-10-30T05:18:09;0.60;;;0.60;;
13764;SDS011;6953;48.810;9.204;2022-10-30T05:20:34;0.60;;;0.60;;
13764;SDS011;6953;48.810;9.204;2022-10-30T05:22:59;0.60;;;0.60;;
13764;SDS011;6953;48.810;9.204;2022-10-30T05:25:25;0.68;;;0.68;;
13764;SDS011;6953;48.810;9.204;2022-10-30T05:28:01;0.57;;;0.57;;
13764;SDS011;6953;48.810;9.204;2022-10-30T05:30:29;0.60;;;0.60;;
13764;SDS011;6953;48.810;9.204;2022-10-30T05:33:02;0.68;;;0.68;;
13764;SDS011;6953;48.810;9.204;2022-10-30T05:35:29;0.60;;;0.60;;
13764;SDS011;6953;48.810;9.204;2022-10-30T05:37:56;0.50;;;0.50;;
13764;SDS011;6953;48.810;9.204;2022-10-30T05:40:22;0.60;;;0.60;;
13764;SDS011;6953;48.810;9.204;2022-10-30T05:42:48;0.70;;;0.70;;
13764;SDS011;6953;48.810;9.204;2022-10-30T05:45:14;0.70;;;0.70;;
13764;SDS011;6953;48.810;9.204;2022-10-30T05:47:40;0.60;;;0.60;;
13764;SDS011;6953;48.810;9.204;2022-10-30T05:50:06;0.60;;;0.60;;
13764;SDS011;6953;48.810;9.204;2022-10-30T05:52:33;0.55;;;0.55;;
13764;SDS011;6953;48.810;9.204;2022-10-30T05:54:58;0.50;;;0.50;;
13764;SDS011;6953;48.810;9.204;2022-10-30T05:57:26;0.50;;;0.50;;
13764;SDS011;6953;48.810;9.204;2022-10-30T05:59:52;0.60;;;0.60;;
13764;SDS011;6953;48.810;9.204;2022-10-30T06:02:18;0.50;;;0.50;;
13764;SDS011;6953;48.810;9.204;2022-10-30T06:04:43;0.40;;;0.40;;
13764;SDS011;6953;48.810;9.204;2022-10-30T06:07:09;0.40;;;0.40;;
13764;SDS011;6953;48.810;9.204;2022-10-30T06:09:37;0.40;;;0.40;;
13764;SDS011;6953;48.810;9.204;2022-10-30T06:12:03;0.50;;;0.50;;
13764;SDS011;6953;48.810;9.204;2022-10-30T06:14:28;0.40;;;0.40;;
13764;SDS011;6953;48.810;9.204;2022-10-30T06:16:54;0.50;;;0.50;;
13764;SDS011;6953;48.810;9.204;2022-10-30T06:19:19;0.50;;;0.50;;
13764;SDS011;6953;48.810;9.204;2022-10-30T06:21:45;0.50;;;0.50;;
13764;SDS011;6953;48.810;9.204;2022-10-30T06:24:11;0.50;;;0.50;;
13764;SDS011;6953;48.810;9.204;2022-10-30T06:26:36;0.50;;;0.50;;
13764;SDS011;6953;48.810;9.204;2022-10-30T06:29:02;0.40;;;0.40;;
13764;SDS011;6953;48.810;9.204;2022-10-30T06:31:27;0.40;;;0.40;;
13764;SDS011;6953;48.810;9.204;2022-10-30T06:33:52;0.40;;;0.40;;
13764;SDS011;6953;48.810;9.204;2022-10-30T06:36:18;0.43;;;0.43;;
13764;SDS011;6953;48.810;9.204;2022-10-30T06:38:43;0.30;;;0.30;;
13764;SDS011;6953;48.810;9.204;2022-10-30T06:41:09;0.40;;;0.40;;
13764;SDS011;6953;48.810;9.204;2022-10-30T06:43:34;0.50;;;0.50;;
13764;SDS011;6953;48.810;9.204;2022-10-30T06:45:59;0.40;;;0.40;;
13764;SDS011;6953;48.810;9.204;2022-10-30T06:48:25;0.40;;;0.40;;
13764;SDS011;6953;48.810;9.204;2022-10-30T06:50:57;0.47;;;0.47;;
13764;SDS011;6953;48.810;9.204;2022-10-30T06:53:23;0.50;;;0.50;;
13764;SDS011;6953;48.810;9.204;2022-10-30T06:55:59;0.50;;;0.50;;
13764;SDS011;6953;48.810;9.204;2022-10-30T06:58:26;0.47;;;0.47;;
13764;SDS011;6953;48.810;9.204;2022-10-30T07:00:52;0.40;;;0.40;;
13764;SDS011;6953;48.810;9.204;2022-10-30T07:03:18;0.30;;;0.30;;
13764;SDS011;6953;48.810;9.204;2022-10-30T07:05:44;0.50;;;0.50;;
13764;SDS011;6953;48.810;9.204;2022-10-30T07:08:09;0.40;;;0.40;;
13764;SDS011;6953;48.810;9.204;2022-10-30T07:10:35;0.40;;;0.40;;
13764;SDS011;6953;48.810;9.204;2022-10-30T07:13:01;0.40;;;0.40;;
13764;SDS011;6953;48.810;9.204;2022-10-30T07:15:26;0.40;;;0.40;;
13764;SDS011;6953;48.810;9.204;2022-10-30T07:17:58;0.40;;;0.40;;
13764;SDS011;6953;48.810;9.204;2022-10-30T07:20:28;0.40;;;0.40;;
13764;SDS011;6953;48.810;9.204;2022-10-30T07:22:54;0.30;;;0.30;;
13764;SDS011;6953;48.810;9.204;2022-10-30T07:25:20;0.30;;;0.30;;
13764;SDS011;6953;48.810;9.204;2022-10-30T07:27:47;0.40;;;0.40;;
13764;SDS011;6953;48.810;9.204;2022-10-30T07:30:14;0.30;;;0.30;;
13764;SDS011;6953;48.810;9.204;2022-10-30T07:32:42;0.40;;;0.40;;
13764;SDS011;6953;48.810;9.204;2022-10-30T07:35:08;0.40;;;0.40;;
13764;SDS011;6953;48.810;9.204;2022-10-30T07:37:36;0.40;;;0.40;;
13764;SDS011;6953;48.810;9.204;2022-10-30T07:40:01;0.40;;;0.40;;
13764;SDS011;6953;48.810;9.204;2022-10-30T07:42:27;0.40;;;0.40;;
13764;SDS011;6953;48.810;9.204;2022-10-30T07:44:52;0.40;;;0.40;;
13764;SDS011;6953;48.810;9.204;2022-10-30T07:47:17;0.30;;;0.30;;
13764;SDS011;6953;48.810;9.204;2022-10-30T07:49:43;0.30;;;0.30;;
13764;SDS011;6953;48.810;9.204;2022-10-30T07:52:08;0.32;;;0.32;;
13764;SDS011;6953;48.810;9.204;2022-10-30T07:54:33;0.30;;;0.30;;
13764;SDS011;6953;48.810;9.204;2022-10-30T07:56:59;0.30;;;0.30;;
13764;SDS011;6953;48.810;9.204;2022-10-30T07:59:24;0.30;;;0.30;;
13764;SDS011;6953;48.810;9.204;2022-10-30T08:01:50;0.30;;;0.30;;
13764;SDS011;6953;48.810;9.204;2022-10-30T08:04:15;0.30;;;0.30;;
13764;SDS011;6953;48.810;9.204;2022-10-30T08:06:41;0.30;;;0.30;;
13764;SDS011;6953;48.810;9.204;2022-10-30T08:09:07;0.30;;;0.30;;
13764;SDS011;6953;48.810;9.204;2022-10-30T08:11:33;0.30;;;0.30;;
13764;SDS011;6953;48.810;9.204;2022-10-30T08:13:58;0.40;;;0.40;;
13764;SDS011;6953;48.810;9.204;2022-10-30T08:16:24;0.40;;;0.40;;
13764;SDS011;6953;48.810;9.204;2022-10-30T08:18:49;0.30;;;0.30;;
13764;SDS011;6953;48.810;9.204;2022-10-30T08:21:15;0.40;;;0.40;;
13764;SDS011;6953;48.810;9.204;2022-10-30T08:23:40;0.50;;;0.50;;
13764;SDS011;6953;48.810;9.204;2022-10-30T08:26:05;0.47;;;0.47;;
13764;SDS011;6953;48.810;9.204;2022-10-30T08:28:31;0.40;;;0.40;;
13764;SDS011;6953;48.810;9.204;2022-10-30T08:30:57;0.30;;;0.30;;
13764;SDS011;6953;48.810;9.204;2022-10-30T08:33:23;0.30;;;0.30;;
13764;SDS011;6953;48.810;9.204;2022-10-30T08:35:49;0.30;;;0.30;;
13764;SDS011;6953;48.810;9.204;2022-10-30T08:38:15;0.40;;;0.40;;
13764;SDS011;6953;48.810;9.204;2022-10-30T08:40:41;0.30;;;0.30;;
13764;SDS011;6953;48.810;9.204;2022-10-30T08:43:07;0.30;;;0.30;;
13764;SDS011;6953;48.810;9.204;2022-10-30T08:45:33;0.20;;;0.20;;
13764;SDS011;6953;48.810;9.204;2022-10-30T08:47:59;0.20;;;0.20;;
13764;SDS011;6953;48.810;9.204;2022-10-30T08:50:27;0.10;;;0.10;;
13764;SDS011;6953;48.810;9.204;2022-10-30T08:52:53;0.10;;;0.10;;
13764;SDS011;6953;48.810;9.204;2022-10-30T08:55:19;0.00;;;0.00;;
13764;SDS011;6953;48.810;9.204;2022-10-30T08:57:44;0.10;;;0.10;;
13764;SDS011;6953;48.810;9.204;2022-10-30T09:00:10;0.10;;;0.10;;
13764;SDS011;6953;48.810;9.204;2022-10-30T09:02:36;0.00;;;0.00;;
13764;SDS011;6953;48.810;9.204;2022-10-30T09:05:05;0.00;;;0.00;;
13764;SDS011;6953;48.810;9.204;2022-10-30T09:07:32;0.00;;;0.00;;
13764;SDS011;6953;48.810;9.204;2022-10-30T09:09:57;0.00;;;0.00;;
13764;SDS011;6953;48.810;9.204;2022-10-30T09:12:23;0.00;;;0.00;;
13764;SDS011;6953;48.810;9.204;2022-10-30T09:14:48;0.00;;;0.00;;
13764;SDS011;6953;48.810;9.204;2022-10-30T09:17:13;0.00;;;0.00;;
13764;SDS011;6953;48.810;9.204;2022-10-30T09:19:39;0.00;;;0.00;;
13764;SDS011;6953;48.810;9.204;2022-10-30T09:22:04;0.00;;;0.00;;
13764;SDS011;6953;48.810;9.204;2022-10-30T09:24:30;0.00;;;0.00;;
13764;SDS011;6953;48.810;9.204;2022-10-30T09:26:55;0.00;;;0.00;;
13764;SDS011;6953;48.810;9.204;2022-10-30T09:29:21;0.00;;;0.00;;
13764;SDS011;6953;48.810;9.204;2022-10-30T09:31:46;0.10;;;0.10;;
13764;SDS011;6953;48.810;9.204;2022-10-30T09:34:12;0.10;;;0.10;;
13764;SDS011;6953;48.810;9.204;2022-10-30T09:36:37;0.10;;;0.10;;
13764;SDS011;6953;48.810;9.204;2022-10-30T09:39:02;0.00;;;0.00;;
13764;SDS011;6953;48.810;9.204;2022-10-30T09:41:34;0.00;;;0.00;;
13764;SDS011;6953;48.810;9.204;2022-10-30T09:50:01;0.10;;;0.10;;
13764;SDS011;6953;48.810;9.204;2022-10-30T09:55:46;0.10;;;0.10;;
13764;SDS011;6953;48.810;9.204;2022-10-30T09:59:04;0.10;;;0.10;;
13764;SDS011;6953;48.810;9.204;2022-10-30T10:04:03;0.00;;;0.00;;
13764;SDS011;6953;48.810;9.204;2022-10-30T10:06:43;0.00;;;0.00;;
13764;SDS011;6953;48.810;9.204;2022-10-30T10:11:52;0.00;;;0.00;;
13764;SDS011;6953;48.810;9.204;2022-10-30T10:14:20;0.00;;;0.00;;
13764;SDS011;6953;48.810;9.204;2022-10-30T10:16:53;0.00;;;0.00;;
13764;SDS011;6953;48.810;9.204;2022-10-30T10:21:56;0.00;;;0.00;;
13764;SDS011;6953;48.810;9.204;2022-10-30T10:24:25;0.00;;;0.00;;
13764;SDS011;6953;48.810;9.204;2022-10-30T10:29:48;0.00;;;0.00;;
13764;SDS011;6953;48.810;9.204;2022-10-30T10:51:58;0.00;;;0.00;;
13764;SDS011;6953;48.810;9.204;2022-10-30T10:54:29;0.00;;;0.00;;
13764;SDS011;6953;48.810;9.204;2022-10-30T10:57:01;0.10;;;0.10;;
13764;SDS011;6953;48.810;9.204;2022-10-30T10:59:40;0.00;;;0.00;;
13764;SDS011;6953;48.810;9.204;2022-10-30T11:08:08;0.00;;;0.00;;
13764;SDS011;6953;48.810;9.204;2022-10-30T11:10:39;0.00;;;0.00;;
13764;SDS011;6953;48.810;9.204;2022-10-30T11:13:04;0.00;;;0.00;;
13764;SDS011;6953;48.810;9.204;2022-10-30T11:15:33;0.00;;;0.00;;
13764;SDS011;6953;48.810;9.204;2022-10-30T11:18:05;0.00;;;0.00;;
13764;SDS011;6953;48.810;9.204;2022-10-30T11:23:38;0.10;;;0.10;;
13764;SDS011;6953;48.810;9.204;2022-10-30T11:28:49;0.00;;;0.00;;
13764;SDS011;6953;48.810;9.204;2022-10-30T11:31:40;0.10;;;0.10;;
13764;SDS011;6953;48.810;9.204;2022-10-30T11:36:41;0.00;;;0.00;;
13764;SDS011;6953;48.810;9.204;2022-10-30T11:39:10;0.00;;;0.00;;
13764;SDS011;6953;48.810;9.204;2022-10-30T11:41:41;0.00;;;0.00;;
13764;SDS011;6953;48.810;9.204;2022-10-30T11:44:10;0.00;;;0.00;;
13764;SDS011;6953;48.810;9.204;2022-10-30T11:46:36;0.00;;;0.00;;
13764;SDS011;6953;48.810;9.204;2022-10-30T11:49:02;0.00;;;0.00;;
13764;SDS011;6953;48.810;9.204;2022-10-30T11:51:32;0.00;;;0.00;;
13764;SDS011;6953;48.810;9.204;2022-10-30T11:54:01;0.00;;;0.00;;
13764;SDS011;6953;48.810;9.204;2022-10-30T11:56:27;0.00;;;0.00;;
13764;SDS011;6953;48.810;9.204;2022-10-30T11:58:55;0.00;;;0.00;;
13764;SDS011;6953;48.810;9.204;2022-10-30T12:01:24;0.10;;;0.10;;
13764;SDS011;6953;48.810;9.204;2022-10-30T12:03:52;0.00;;;0.00;;
13764;SDS011;6953;48.810;9.204;2022-10-30T12:08:57;0.00;;;0.00;;
13764;SDS011;6953;48.810;9.204;2022-10-30T12:11:34;0.00;;;0.00;;
13764;SDS011;6953;48.810;9.204;2022-10-30T12:14:01;0.10;;;0.10;;
13764;SDS011;6953;48.810;9.204;2022-10-30T12:16:27;0.10;;;0.10;;
13764;SDS011;6953;48.810;9.204;2022-10-30T12:19:01;0.10;;;0.10;;
13764;SDS011;6953;48.810;9.204;2022-10-30T12:21:35;0.10;;;0.10;;
13764;SDS011;6953;48.810;9.204;2022-10-30T12:24:03;0.10;;;0.10;;
13764;SDS011;6953;48.810;9.204;2022-10-30T12:26:33;0.10;;;0.10;;
13764;SDS011;6953;48.810;9.204;2022-10-30T12:29:01;0.10;;;0.10;;
13764;SDS011;6953;48.810;9.204;2022-10-30T12:31:37;0.10;;;0.10;;
13764;SDS011;6953;48.810;9.204;2022-10-30T12:36:46;0.10;;;0.10;;
13764;SDS011;6953;48.810;9.204;2022-10-30T12:39:18;0.10;;;0.10;;
13764;SDS011;6953;48.810;9.204;2022-10-30T12:53:01;0.10;;;0.10;;
13764;SDS011;6953;48.810;9.204;2022-10-30T12:55:36;0.10;;;0.10;;
13764;SDS011;6953;48.810;9.204;2022-10-30T13:00:52;0.10;;;0.10;;
13764;SDS011;6953;48.810;9.204;2022-10-30T13:03:25;0.10;;;0.10;;
13764;SDS011;6953;48.810;9.204;2022-10-30T13:05:59;0.10;;;0.10;;
13764;SDS011;6953;48.810;9.204;2022-10-30T13:08:31;0.10;;;0.10;;
13764;SDS011;6953;48.810;9.204;2022-10-30T13:11:44;0.10;;;0.10;;
13764;SDS011;6953;48.810;9.204;2022-10-30T13:14:01;0.00;;;0.00;;
13764;SDS011;6953;48.810;9.204;2022-10-30T13:16:29;0.10;;;0.10;;
13764;SDS011;6953;48.810;9.204;2022-10-30T13:18:59;0.10;;;0.10;;
13764;SDS011;6953;48.810;9.204;2022-10-30T13:24:00;0.10;;;0.10;;
13764;SDS011;6953;48.810;9.204;2022-10-30T13:29:28;0.10;;;0.10;;
13764;SDS011;6953;48.810;9.204;2022-10-30T13:43:28;0.10;;;0.10;;
13764;SDS011;6953;48.810;9.204;2022-10-30T13:46:09;0.20;;;0.20;;
13764;SDS011;6953;48.810;9.204;2022-10-30T13:51:54;0.20;;;0.20;;
13764;SDS011;6953;48.810;9.204;2022-10-30T13:56:55;0.20;;;0.20;;
13764;SDS011;6953;48.810;9.204;2022-10-30T13:59:49;0.20;;;0.20;;
13764;SDS011;6953;48.810;9.204;2022-10-30T14:05:29;0.10;;;0.10;;
13764;SDS011;6953;48.810;9.204;2022-10-30T14:10:43;0.20;;;0.20;;
13764;SDS011;6953;48.810;9.204;2022-10-30T14:15:53;0.10;;;0.10;;
13764;SDS011;6953;48.810;9.204;2022-10-30T14:18:31;0.20;;;0.20;;
13764;SDS011;6953;48.810;9.204;2022-10-30T14:26:39;0.10;;;0.10;;
13764;SDS011;6953;48.810;9.204;2022-10-30T14:29:29;0.10;;;0.10;;
13764;SDS011;6953;48.810;9.204;2022-10-30T14:31:56;0.20;;;0.20;;
13764;SDS011;6953;48.810;9.204;2022-10-30T14:37:05;0.17;;;0.17;;
13764;SDS011;6953;48.810;9.204;2022-10-30T14:39:32;0.10;;;0.10;;
13764;SDS011;6953;48.810;9.204;2022-10-30T14:42:13;0.20;;;0.20;;
13764;SDS011;6953;48.810;9.204;2022-10-30T14:53:38;0.20;;;0.20;;
13764;SDS011;6953;48.810;9.204;2022-10-30T15:01:54;0.30;;;0.30;;
13764;SDS011;6953;48.810;9.204;2022-10-30T15:06:56;0.20;;;0.20;;
13764;SDS011;6953;48.810;9.204;2022-10-30T15:09:45;0.30;;;0.30;;
13764;SDS011;6953;48.810;9.204;2022-10-30T15:15:03;0.30;;;0.30;;
13764;SDS011;6953;48.810;9.204;2022-10-30T15:17:40;0.20;;;0.20;;
13764;SDS011;6953;48.810;9.204;2022-10-30T15:22:49;0.30;;;0.30;;
13764;SDS011;6953;48.810;9.204;2022-10-30T15:25:37;0.20;;;0.20;;
13764;SDS011;6953;48.810;9.204;2022-10-30T15:28:12;0.20;;;0.20;;
13764;SDS011;6953;48.810;9.204;2022-10-30T15:30:56;0.20;;;0.20;;
13764;SDS011;6953;48.810;9.204;2022-10-30T15:33:29;0.20;;;0.20;;
13764;SDS011;6953;48.810;9.204;2022-10-30T15:35:56;0.20;;;0.20;;
13764;SDS011;6953;48.810;9.204;2022-10-30T15:38:25;0.20;;;0.20;;
13764;SDS011;6953;48.810;9.204;2022-10-30T15:40:54;0.20;;;0.20;;
13764;SDS011;6953;48.810;9.204;2022-10-30T15:43:27;0.20;;;0.20;;
13764;SDS011;6953;48.810;9.204;2022-10-30T15:45:55;0.30;;;0.30;;
13764;SDS011;6953;48.810;9.204;2022-10-30T15:53:45;0.40;;;0.40;;
13764;SDS011;6953;48.810;9.204;2022-10-30T15:56:26;0.15;;;0.15;;
13764;SDS011;6953;48.810;9.204;2022-10-30T15:58:59;0.17;;;0.17;;
13764;SDS011;6953;48.810;9.204;2022-10-30T16:01:36;0.17;;;0.17;;
13764;SDS011;6953;48.810;9.204;2022-10-30T16:06:39;0.10;;;0.10;;
13764;SDS011;6953;48.810;9.204;2022-10-30T16:09:13;0.20;;;0.20;;
13764;SDS011;6953;48.810;9.204;2022-10-30T16:11:38;0.20;;;0.20;;
13764;SDS011;6953;48.810;9.204;2022-10-30T16:14:07;0.20;;;0.20;;
13764;SDS011;6953;48.810;9.204;2022-10-30T16:16:37;0.20;;;0.20;;
13764;SDS011;6953;48.810;9.204;2022-10-30T16:19:03;0.30;;;0.30;;
13764;SDS011;6953;48.810;9.204;2022-10-30T16:21:29;0.30;;;0.30;;
13764;SDS011;6953;48.810;9.204;2022-10-30T16:23:56;0.40;;;0.40;;
13764;SDS011;6953;48.810;9.204;2022-10-30T16:26:32;0.40;;;0.40;;
13764;SDS011;6953;48.810;9.204;2022-10-30T16:29:06;0.20;;;0.20;;
13764;SDS011;6953;48.810;9.204;2022-10-30T16:31:41;0.20;;;0.20;;
13764;SDS011;6953;48.810;9.204;2022-10-30T16:34:09;0.22;;;0.22;;
13764;SDS011;6953;48.810;9.204;2022-10-30T16:36:46;0.20;;;0.20;;
13764;SDS011;6953;48.810;9.204;2022-10-30T16:39:13;0.20;;;0.20;;
13764;SDS011;6953;48.810;9.204;2022-10-30T16:41:41;0.20;;;0.20;;
13764;SDS011;6953;48.810;9.204;2022-10-30T16:44:18;0.20;;;0.20;;
13764;SDS011;6953;48.810;9.204;2022-10-30T16:49:18;0.20;;;0.20;;
13764;SDS011;6953;48.810;9.204;2022-10-30T16:51:56;0.10;;;0.10;;
13764;SDS011;6953;48.810;9.204;2022-10-30T16:54:26;0.20;;;0.20;;
13764;SDS011;6953;48.810;9.204;2022-10-30T16:56:57;0.20;;;0.20;;
13764;SDS011;6953;48.810;9.204;2022-10-30T16:59:37;0.20;;;0.20;;
13764;SDS011;6953;48.810;9.204;2022-10-30T17:02:18;0.20;;;0.20;;
13764;SDS011;6953;48.810;9.204;2022-10-30T17:04:51;0.20;;;0.20;;
13764;SDS011;6953;48.810;9.204;2022-10-30T17:07:19;0.50;;;0.50;;
13764;SDS011;6953;48.810;9.204;2022-10-30T17:09:48;0.40;;;0.40;;
13764;SDS011;6953;48.810;9.204;2022-10-30T17:12:19;0.50;;;0.50;;
13764;SDS011;6953;48.810;9.204;2022-10-30T17:14:51;0.50;;;0.50;;
13764;SDS011;6953;48.810;9.204;2022-10-30T17:17:29;0.50;;;0.50;;
13764;SDS011;6953;48.810;9.204;2022-10-30T17:19:59;0.52;;;0.52;;
13764;SDS011;6953;48.810;9.204;2022-10-30T17:22:25;0.40;;;0.40;;
13764;SDS011;6953;48.810;9.204;2022-10-30T17:24:51;0.50;;;0.50;;
13764;SDS011;6953;48.810;9.204;2022-10-30T17:27:40;0.47;;;0.47;;
13764;SDS011;6953;48.810;9.204;2022-10-30T17:32:59;0.50;;;0.50;;
13764;SDS011;6953;48.810;9.204;2022-10-30T17:35:46;0.50;;;0.50;;
13764;SDS011;6953;48.810;9.204;2022-10-30T17:38:11;0.50;;;0.50;;
13764;SDS011;6953;48.810;9.204;2022-10-30T17:40:37;0.30;;;0.30;;
13764;SDS011;6953;48.810;9.204;2022-10-30T17:43:02;0.60;;;0.60;;
13764;SDS011;6953;48.810;9.204;2022-10-30T17:45:27;0.50;;;0.50;;
13764;SDS011;6953;48.810;9.204;2022-10-30T17:47:52;0.55;;;0.55;;
13764;SDS011;6953;48.810;9.204;2022-10-30T17:50:18;0.45;;;0.45;;
13764;SDS011;6953;48.810;9.204;2022-10-30T17:52:43;0.50;;;0.50;;
13764;SDS011;6953;48.810;9.204;2022-10-30T17:55:19;0.50;;;0.50;;
13764;SDS011;6953;48.810;9.204;2022-10-30T17:57:50;0.60;;;0.60;;
13764;SDS011;6953;48.810;9.204;2022-10-30T18:00:16;0.50;;;0.50;;